createdAt,value
2023-04-28T00:00:09.672Z,100340.78
2023-04-28T00:02:57.951Z,100338.56
2023-04-28T00:05:26.763Z,100335.63
2023-04-28T00:07:55.208Z,100334.28
2023-04-28T00:10:23.471Z,100317.03
2023-04-28T00:12:53.079Z,100303.19
2023-04-28T00:15:21.252Z,100314.34
2023-04-28T00:17:50.366Z,100316.34
2023-04-28T00:20:18.877Z,100297.53
2023-04-28T00:22:47.206Z,100299.00
2023-04-28T00:25:15.220Z,100296.84
2023-04-28T00:27:43.446Z,100284.59
2023-04-28T00:30:13.580Z,100276.06
2023-04-28T00:32:41.949Z,100267.78
2023-04-28T00:35:10.732Z,100266.38
2023-04-28T00:37:39.403Z,100268.22
2023-04-28T00:40:08.714Z,100252.22
2023-04-28T00:42:36.972Z,100253.22
2023-04-28T00:45:06.632Z,100247.63
2023-04-28T00:47:37.787Z,100246.13
2023-04-28T00:50:06.890Z,100242.94
2023-04-28T00:52:35.369Z,100244.59
2023-04-28T00:55:03.516Z,100243.25
2023-04-28T00:57:32.235Z,100246.31
2023-04-28T01:00:01.545Z,100241.69
2023-04-28T01:02:30.751Z,100252.69
2023-04-28T01:05:00.356Z,100238.03
2023-04-28T01:07:28.801Z,100237.63
2023-04-28T01:09:57.405Z,100230.28
2023-04-28T01:12:31.203Z,100215.91
2023-04-28T01:14:59.977Z,100217.53
2023-04-28T01:17:29.188Z,100220.81
2023-04-28T01:19:57.476Z,100208.47
2023-04-28T01:22:27.364Z,100208.31
2023-04-28T01:24:57.192Z,100190.09
2023-04-28T01:27:25.487Z,100205.47
2023-04-28T01:29:53.528Z,100199.56
2023-04-28T01:32:21.812Z,100198.34
2023-04-28T01:34:49.824Z,100198.03
2023-04-28T01:37:18.115Z,100192.69
2023-04-28T01:39:46.244Z,100194.53
2023-04-28T01:42:15.861Z,100200.88
2023-04-28T01:44:43.896Z,100192.31
2023-04-28T01:47:12.714Z,100201.91
2023-04-28T01:49:40.821Z,100199.31
2023-04-28T01:52:09.588Z,100197.69
2023-04-28T01:54:37.926Z,100198.03
2023-04-28T01:57:06.469Z,100202.88
2023-04-28T01:59:36.089Z,100208.06
2023-04-28T02:02:04.673Z,100216.66
2023-04-28T02:04:34.671Z,100213.97
2023-04-28T02:07:02.971Z,100223.16
2023-04-28T02:09:31.241Z,100213.63
2023-04-28T02:12:02.191Z,100201.34
2023-04-28T02:14:32.140Z,100189.03
2023-04-28T02:17:03.050Z,100202.44
2023-04-28T02:19:31.120Z,100203.81
2023-04-28T02:21:59.544Z,100208.88
2023-04-28T02:24:27.593Z,100214.72
2023-04-28T02:26:55.863Z,100204.09
2023-04-28T02:29:24.575Z,100198.78
2023-04-28T02:31:53.358Z,100206.78
2023-04-28T02:34:22.841Z,100198.25
2023-04-28T02:36:51.078Z,100208.88
2023-04-28T02:39:21.253Z,100207.28
2023-04-28T02:41:49.501Z,100216.25
2023-04-28T02:44:17.635Z,100196.06
2023-04-28T02:46:46.063Z,100205.66
2023-04-28T02:49:14.145Z,100207.25
2023-04-28T02:51:43.820Z,100219.47
2023-04-28T02:54:11.748Z,100219.72
2023-04-28T02:56:40.971Z,100211.94
2023-04-28T02:59:09.082Z,100215.53
2023-04-28T03:01:37.356Z,100206.19
2023-04-28T03:04:05.910Z,100209.44
2023-04-28T03:06:34.557Z,100206.03
2023-04-28T03:09:03.961Z,100201.44
2023-04-28T03:11:32.334Z,100190.53
2023-04-28T03:14:00.594Z,100174.25
2023-04-28T03:16:28.920Z,100174.75
2023-04-28T03:18:57.138Z,100166.75
2023-04-28T03:21:26.610Z,100172.56
2023-04-28T03:23:54.808Z,100167.75
2023-04-28T03:26:25.293Z,100162.13
2023-04-28T03:28:55.481Z,100154.94
2023-04-28T03:31:24.155Z,100147.84
2023-04-28T03:33:52.254Z,100144.56
2023-04-28T03:36:21.028Z,100140.66
2023-04-28T03:38:49.025Z,100140.38
2023-04-28T03:41:17.333Z,100139.88
2023-04-28T03:44:12.681Z,100168.78
2023-04-28T03:46:48.703Z,100144.22
2023-04-28T03:49:16.978Z,100136.53
2023-04-28T03:51:46.408Z,100145.00
2023-04-28T03:54:14.853Z,100158.25
2023-04-28T03:56:43.317Z,100158.56
2023-04-28T03:59:13.090Z,100146.63
2023-04-28T04:01:41.382Z,100154.13
2023-04-28T04:04:09.500Z,100153.09
2023-04-28T04:06:38.091Z,100152.03
2023-04-28T04:09:06.195Z,100147.78
2023-04-28T04:11:34.898Z,100146.38
2023-04-28T04:14:03.300Z,100159.16
2023-04-28T04:16:32.976Z,100162.06
2023-04-28T04:19:01.038Z,100160.50
2023-04-28T04:21:36.196Z,100171.97
2023-04-28T04:24:04.586Z,100170.13
2023-04-28T04:26:33.028Z,100168.53
2023-04-28T04:29:01.701Z,100157.34
2023-04-28T04:31:30.075Z,100153.09
2023-04-28T04:33:59.535Z,100140.31
2023-04-28T04:36:28.067Z,100140.31
2023-04-28T04:38:56.445Z,100147.22
2023-04-28T04:41:24.842Z,100141.91
2023-04-28T04:44:03.018Z,100152.53
2023-04-28T04:46:37.959Z,100156.75
2023-04-28T04:49:07.495Z,100154.09
2023-04-28T04:51:35.821Z,100147.69
2023-04-28T04:54:04.391Z,100150.84
2023-04-28T04:56:32.835Z,100147.34
2023-04-28T04:59:00.910Z,100133.75
2023-04-28T05:01:40.403Z,100139.88
2023-04-28T05:04:10.076Z,100134.78
2023-04-28T05:06:38.614Z,100149.19
2023-04-28T05:09:07.379Z,100154.09
2023-04-28T05:11:35.885Z,100150.16
2023-04-28T05:14:04.563Z,100154.16
2023-04-28T05:16:33.128Z,100148.84
2023-04-28T05:19:13.182Z,100152.03
2023-04-28T05:21:43.070Z,100153.09
2023-04-28T05:24:14.401Z,100152.56
2023-04-28T05:26:44.715Z,100147.78
2023-04-28T05:29:13.815Z,100135.31
2023-04-28T05:31:42.268Z,100128.66
2023-04-28T05:34:11.030Z,100135.56
2023-04-28T05:36:41.825Z,100140.34
2023-04-28T05:39:12.120Z,100144.59
2023-04-28T05:41:41.823Z,100147.81
2023-04-28T05:44:09.968Z,100148.84
2023-04-28T05:46:38.281Z,100146.19
2023-04-28T05:49:07.291Z,100145.13
2023-04-28T05:51:40.146Z,100137.13
2023-04-28T05:54:08.236Z,100135.00
2023-04-28T05:56:42.883Z,100145.66
2023-04-28T05:59:11.160Z,100150.97
2023-04-28T06:01:39.678Z,100147.22
2023-04-28T06:04:07.893Z,100146.47
2023-04-28T06:06:36.378Z,100135.56
2023-04-28T06:09:07.572Z,100146.44
2023-04-28T06:11:35.911Z,100160.03
2023-04-28T06:14:03.946Z,100167.44
2023-04-28T06:16:32.325Z,100168.25
2023-04-28T06:19:01.003Z,100185.00
2023-04-28T06:21:29.284Z,100197.25
2023-04-28T06:23:58.156Z,100200.69
2023-04-28T06:26:27.775Z,100197.78
2023-04-28T06:28:58.682Z,100196.41
2023-04-28T06:31:27.026Z,100194.56
2023-04-28T06:33:55.352Z,100186.56
2023-04-28T06:36:24.740Z,100175.41
2023-04-28T06:38:52.819Z,100173.81
2023-04-28T06:41:21.259Z,100182.34
2023-04-28T06:43:53.038Z,100166.91
2023-04-28T06:46:30.130Z,100160.28
2023-04-28T06:48:58.775Z,100167.97
2023-04-28T06:51:28.742Z,100161.06
2023-04-28T06:53:57.442Z,100169.59
2023-04-28T06:56:25.802Z,100171.16
2023-04-28T06:58:56.198Z,100157.88
2023-04-28T07:01:24.559Z,100154.69
2023-04-28T07:03:52.781Z,100160.53
2023-04-28T07:06:21.273Z,100165.31
2023-04-28T07:08:49.429Z,100163.72
2023-04-28T07:11:17.875Z,100161.06
2023-04-28T07:13:49.233Z,100153.09
2023-04-28T07:16:19.073Z,100154.41
2023-04-28T07:18:47.117Z,100154.69
2023-04-28T07:21:15.817Z,100153.63
2023-04-28T07:23:43.892Z,100163.19
2023-04-28T07:26:14.257Z,100169.31
2023-04-28T07:28:42.817Z,100162.63
2023-04-28T07:31:11.317Z,100161.09
2023-04-28T07:33:40.739Z,100157.34
2023-04-28T07:36:09.064Z,100158.38
2023-04-28T07:38:37.238Z,100157.75
2023-04-28T07:41:07.584Z,100159.91
2023-04-28T07:43:38.061Z,100155.09
2023-04-28T07:46:08.231Z,100153.56
2023-04-28T07:48:36.591Z,100147.69
2023-04-28T07:51:06.562Z,100142.34
2023-04-28T07:53:35.086Z,100132.25
2023-04-28T07:56:03.411Z,100128.47
2023-04-28T07:58:32.265Z,100145.22
2023-04-28T08:01:00.586Z,100135.41
2023-04-28T08:03:28.772Z,100157.25
2023-04-28T08:05:57.499Z,100153.34
2023-04-28T08:08:27.077Z,100154.94
2023-04-28T08:10:55.322Z,100150.91
2023-04-28T08:13:23.604Z,100148.25
2023-04-28T08:15:51.904Z,100150.41
2023-04-28T08:18:20.207Z,100138.69
2023-04-28T08:20:48.489Z,100151.19
2023-04-28T08:23:16.500Z,100135.97
2023-04-28T08:25:46.885Z,100143.94
2023-04-28T08:28:14.993Z,100146.31
2023-04-28T08:30:43.335Z,100132.72
2023-04-28T08:33:11.404Z,100143.38
2023-04-28T08:35:40.049Z,100140.44
2023-04-28T08:38:13.825Z,100141.34
2023-04-28T08:40:42.754Z,100157.00
2023-04-28T08:43:12.867Z,100164.75
2023-04-28T08:45:42.735Z,100158.09
2023-04-28T08:48:19.461Z,100160.97
2023-04-28T08:50:51.148Z,100159.34
2023-04-28T08:53:25.042Z,100146.81
2023-04-28T08:55:56.649Z,100148.09
2023-04-28T08:58:26.617Z,100163.63
2023-04-28T09:00:55.067Z,100154.03
2023-04-28T09:03:23.347Z,100151.84
2023-04-28T09:05:51.894Z,100152.88
2023-04-28T09:08:19.898Z,100160.38
2023-04-28T09:10:48.376Z,100159.91
2023-04-28T09:13:27.206Z,100156.69
2023-04-28T09:16:00.870Z,100152.38
2023-04-28T09:18:28.992Z,100170.00
2023-04-28T09:21:04.231Z,100169.50
2023-04-28T09:23:33.431Z,100167.66
2023-04-28T09:26:03.277Z,100166.81
2023-04-28T09:28:33.075Z,100177.97
2023-04-28T09:31:01.706Z,100169.41
2023-04-28T09:33:29.939Z,100160.91
2023-04-28T09:35:58.304Z,100157.16
2023-04-28T09:38:26.857Z,100161.91
2023-04-28T09:40:57.253Z,100167.75
2023-04-28T09:43:26.711Z,100160.84
2023-04-28T09:45:57.230Z,100159.75
2023-04-28T09:48:30.044Z,100160.78
2023-04-28T09:50:59.132Z,100162.88
2023-04-28T09:53:27.661Z,100158.22
2023-04-28T09:55:56.994Z,100162.56
2023-04-28T09:58:27.339Z,100158.81
2023-04-28T10:00:58.333Z,100166.88
2023-04-28T10:03:29.402Z,100161.72
2023-04-28T10:05:59.540Z,100155.81
2023-04-28T10:08:30.864Z,100153.66
2023-04-28T10:10:59.386Z,100156.81
2023-04-28T10:13:27.608Z,100164.78
2023-04-28T10:15:58.469Z,100162.63
2023-04-28T10:18:27.334Z,100159.31
2023-04-28T10:20:59.590Z,100166.38
2023-04-28T10:24:00.164Z,100167.41
2023-04-28T10:26:57.564Z,100164.19
2023-04-28T10:29:25.918Z,100165.75
2023-04-28T10:32:32.828Z,100174.81
2023-04-28T10:35:36.369Z,100174.81
2023-04-28T10:38:06.674Z,100175.53
2023-04-28T10:40:35.295Z,100167.81
2023-04-28T10:43:04.233Z,100165.56
2023-04-28T10:46:01.186Z,100161.97
2023-04-28T10:49:06.340Z,100156.44
2023-04-28T10:51:35.378Z,100150.94
2023-04-28T10:54:19.123Z,100156.13
2023-04-28T10:57:21.796Z,100155.78
2023-04-28T10:59:51.351Z,100142.63
2023-04-28T11:02:49.859Z,100152.72
2023-04-28T11:05:20.162Z,100146.00
2023-04-28T11:08:31.856Z,100148.88
2023-04-28T11:11:21.631Z,100145.16
2023-04-28T11:13:50.557Z,100125.94
2023-04-28T11:16:21.014Z,100136.06
2023-04-28T11:18:55.918Z,100133.84
2023-04-28T11:21:25.757Z,100144.25
2023-04-28T11:23:53.974Z,100139.13
2023-04-28T11:26:24.592Z,100139.34
2023-04-28T11:28:54.090Z,100137.97
2023-04-28T11:31:24.061Z,100134.22
2023-04-28T11:33:58.323Z,100127.75
2023-04-28T11:36:32.781Z,100133.09
2023-04-28T11:39:01.035Z,100144.00
2023-04-28T11:41:30.644Z,100136.25
2023-04-28T11:43:58.722Z,100139.44
2023-04-28T11:46:27.593Z,100141.44
2023-04-28T11:49:06.535Z,100143.41
2023-04-28T11:51:36.756Z,100151.00
2023-04-28T11:54:06.654Z,100145.16
2023-04-28T11:56:39.843Z,100133.97
2023-04-28T11:59:09.268Z,100114.66
2023-04-28T12:01:46.650Z,100131.66
2023-04-28T12:04:15.408Z,100136.69
2023-04-28T12:06:44.005Z,100138.66
2023-04-28T12:09:21.219Z,100143.53
2023-04-28T12:12:02.859Z,100135.59
2023-04-28T12:14:32.064Z,100133.91
2023-04-28T12:17:01.193Z,100135.63
2023-04-28T12:19:29.190Z,100141.00
2023-04-28T12:22:01.790Z,100153.59
2023-04-28T12:24:29.867Z,100172.72
2023-04-28T12:27:17.928Z,100166.25
2023-04-28T12:29:47.260Z,100159.44
2023-04-28T12:32:15.981Z,100150.03
2023-04-28T12:34:46.006Z,100150.50
2023-04-28T12:37:14.315Z,100133.44
2023-04-28T12:39:43.230Z,100120.38
2023-04-28T12:42:11.734Z,100120.84
2023-04-28T12:44:41.073Z,100126.19
2023-04-28T12:47:10.908Z,100120.38
2023-04-28T12:49:39.482Z,100129.56
2023-04-28T12:52:07.903Z,100130.06
2023-04-28T12:54:35.968Z,100140.56
2023-04-28T12:57:04.917Z,100137.91
2023-04-28T12:59:33.357Z,100137.41
2023-04-28T13:02:03.413Z,100129.75
2023-04-28T13:04:32.832Z,100115.97
2023-04-28T13:07:01.338Z,100125.56
2023-04-28T13:09:29.668Z,100122.75
2023-04-28T13:11:58.651Z,100119.41
2023-04-28T13:14:28.134Z,100118.13
2023-04-28T13:16:57.558Z,100113.78
2023-04-28T13:19:28.646Z,100111.03
2023-04-28T13:21:57.927Z,100108.44
2023-04-28T13:24:26.522Z,100102.69
2023-04-28T13:26:54.860Z,100111.31
2023-04-28T13:29:23.050Z,100107.38
2023-04-28T13:31:51.691Z,100101.72
2023-04-28T13:34:19.766Z,100104.41
2023-04-28T13:36:50.973Z,100110.78
2023-04-28T13:39:20.389Z,100106.53
2023-04-28T13:41:48.917Z,100090.56
2023-04-28T13:44:17.300Z,100086.91
2023-04-28T13:46:45.958Z,100076.31
2023-04-28T13:49:14.286Z,100077.53
2023-04-28T13:51:45.625Z,100072.56
2023-04-28T13:54:15.566Z,100057.09
2023-04-28T13:56:44.023Z,100052.91
2023-04-28T13:59:12.138Z,100049.31
2023-04-28T14:01:40.472Z,100058.06
2023-04-28T14:04:08.740Z,100061.94
2023-04-28T14:06:37.305Z,100062.88
2023-04-28T14:09:05.487Z,100056.16
2023-04-28T14:11:35.123Z,100061.28
2023-04-28T14:14:03.273Z,100062.59
2023-04-28T14:16:31.583Z,100036.34
2023-04-28T14:18:59.964Z,100041.72
2023-04-28T14:21:28.338Z,100059.69
2023-04-28T14:23:56.288Z,100055.41
2023-04-28T14:26:25.205Z,100051.34
2023-04-28T14:28:55.025Z,100048.84
2023-04-28T14:31:23.396Z,100058.94
2023-04-28T14:33:51.666Z,100054.94
2023-04-28T14:36:20.104Z,100038.09
2023-04-28T14:38:48.220Z,100022.25
2023-04-28T14:41:16.501Z,100011.03
2023-04-28T14:43:44.825Z,100014.38
2023-04-28T14:46:14.570Z,100046.75
2023-04-28T14:48:42.800Z,100067.03
2023-04-28T14:51:11.316Z,100091.81
2023-04-28T14:53:39.307Z,100068.81
2023-04-28T14:56:17.915Z,100064.03
2023-04-28T14:58:47.456Z,100086.41
2023-04-28T15:01:17.689Z,100073.50
2023-04-28T15:03:46.189Z,100040.81
2023-04-28T15:06:14.652Z,100021.66
2023-04-28T15:08:42.642Z,100025.25
2023-04-28T15:11:11.080Z,100027.84
2023-04-28T15:13:41.005Z,100026.81
2023-04-28T15:16:10.886Z,100014.16
2023-04-28T15:18:40.274Z,100021.31
2023-04-28T15:21:09.348Z,100028.00
2023-04-28T15:23:37.353Z,100039.28
2023-04-28T15:26:06.476Z,100055.03
2023-04-28T15:28:34.559Z,100063.44
2023-04-28T15:31:04.796Z,100072.41
2023-04-28T15:33:33.572Z,100065.88
2023-04-28T15:36:03.207Z,100055.44
2023-04-28T15:38:31.944Z,100048.53
2023-04-28T15:41:00.277Z,100035.69
2023-04-28T15:43:28.317Z,100021.78
2023-04-28T15:45:56.842Z,100020.97
2023-04-28T15:48:24.876Z,100014.19
2023-04-28T15:50:53.341Z,100018.00
2023-04-28T15:53:22.960Z,100021.78
2023-04-28T15:55:51.330Z,100014.63
2023-04-28T15:58:19.334Z,100005.63
2023-04-28T16:00:47.655Z,100015.44
2023-04-28T16:03:15.909Z,100028.03
2023-04-28T16:05:44.356Z,100027.38
2023-04-28T16:08:12.538Z,100030.66
2023-04-28T16:10:42.399Z,100035.56
2023-04-28T16:13:12.258Z,100026.31
2023-04-28T16:15:42.243Z,100026.47
2023-04-28T16:18:10.468Z,100030.22
2023-04-28T16:20:42.548Z,100021.06
2023-04-28T16:23:13.988Z,100015.09
2023-04-28T16:25:43.978Z,100008.16
2023-04-28T16:28:11.969Z,99992.00
2023-04-28T16:30:40.249Z,99997.97
2023-04-28T16:33:08.590Z,99990.94
2023-04-28T16:35:37.409Z,99969.88
2023-04-28T16:38:05.442Z,99963.00
2023-04-28T16:40:33.664Z,99961.28
2023-04-28T16:43:03.167Z,99956.72
2023-04-28T16:45:31.751Z,99959.94
2023-04-28T16:47:59.868Z,99957.28
2023-04-28T16:50:28.217Z,99971.50
2023-04-28T16:52:56.180Z,99968.63
2023-04-28T16:55:24.574Z,99971.34
2023-04-28T16:57:52.565Z,99969.59
2023-04-28T17:00:22.880Z,99981.38
2023-04-28T17:02:51.085Z,99980.28
2023-04-28T17:05:19.527Z,99986.03
2023-04-28T17:07:47.605Z,99984.75
2023-04-28T17:10:15.911Z,99986.53
2023-04-28T17:12:45.389Z,99986.03
2023-04-28T17:15:16.885Z,99977.72
2023-04-28T17:17:49.167Z,99986.81
2023-04-28T17:20:19.851Z,99971.56
2023-04-28T17:22:48.599Z,99972.88
2023-04-28T17:25:17.771Z,99979.13
2023-04-28T17:27:45.753Z,99976.03
2023-04-28T17:30:14.504Z,99973.13
2023-04-28T17:32:42.662Z,99975.91
2023-04-28T17:35:12.408Z,99973.72
2023-04-28T17:37:40.479Z,99982.16
2023-04-28T17:40:10.339Z,99979.94
2023-04-28T17:42:38.429Z,99982.72
2023-04-28T17:45:07.798Z,99979.03
2023-04-28T17:47:36.232Z,99972.22
2023-04-28T17:50:06.614Z,99985.03
2023-04-28T17:52:36.365Z,99980.94
2023-04-28T17:55:05.045Z,99981.94
2023-04-28T17:57:33.192Z,99984.69
2023-04-28T18:00:01.620Z,99984.25
2023-04-28T18:02:40.105Z,99987.97
2023-04-28T18:05:08.992Z,99988.56
2023-04-28T18:07:39.575Z,99990.66
2023-04-28T18:10:08.175Z,99998.72
2023-04-28T18:12:36.374Z,99997.19
2023-04-28T18:15:05.150Z,100000.97
2023-04-28T18:17:35.647Z,100002.16
2023-04-28T18:20:16.510Z,100003.38
2023-04-28T18:22:46.121Z,100014.78
2023-04-28T18:25:16.731Z,100012.13
2023-04-28T18:27:45.742Z,100016.25
2023-04-28T18:30:14.134Z,100028.13
2023-04-28T18:32:43.157Z,100035.06
2023-04-28T18:35:11.431Z,100037.81
2023-04-28T18:37:39.678Z,100034.47
2023-04-28T18:40:09.525Z,100037.03
2023-04-28T18:42:38.056Z,100045.97
2023-04-28T18:45:08.017Z,100051.38
2023-04-28T18:47:36.379Z,100054.16
2023-04-28T18:50:05.169Z,100055.41
2023-04-28T18:52:33.496Z,100056.44
2023-04-28T18:55:01.522Z,100048.44
2023-04-28T18:57:31.126Z,100055.66
2023-04-28T19:00:00.498Z,100056.97
2023-04-28T19:02:28.740Z,100055.81
2023-04-28T19:04:56.964Z,100063.03
2023-04-28T19:07:25.302Z,100065.72
2023-04-28T19:09:53.446Z,100064.25
2023-04-28T19:12:22.000Z,100062.03
2023-04-28T19:14:52.356Z,100058.88
2023-04-28T19:17:20.616Z,100070.19
2023-04-28T19:19:48.756Z,100065.03
2023-04-28T19:22:31.044Z,100068.78
2023-04-28T19:24:59.574Z,100075.75
2023-04-28T19:27:32.023Z,100083.94
2023-04-28T19:30:01.602Z,100092.97
2023-04-28T19:32:30.431Z,100101.72
2023-04-28T19:34:58.511Z,100085.06
2023-04-28T19:37:27.253Z,100093.19
2023-04-28T19:39:55.259Z,100092.81
2023-04-28T19:42:23.552Z,100095.94
2023-04-28T19:44:55.172Z,100099.72
2023-04-28T19:47:25.102Z,100103.50
2023-04-28T19:49:53.428Z,100096.47
2023-04-28T19:52:21.986Z,100100.72
2023-04-28T19:54:50.511Z,100105.47
2023-04-28T19:57:19.967Z,100104.31
2023-04-28T19:59:49.219Z,100110.63
2023-04-28T20:02:18.781Z,100100.63
2023-04-28T20:04:49.245Z,100107.44
2023-04-28T20:07:17.562Z,100103.09
2023-04-28T20:09:45.793Z,100108.66
2023-04-28T20:12:15.208Z,100102.88
2023-04-28T20:14:44.649Z,100101.97
2023-04-28T20:17:12.894Z,100105.44
2023-04-28T20:19:40.967Z,100102.91
2023-04-28T20:22:10.862Z,100105.16
2023-04-28T20:24:39.494Z,100103.22
2023-04-28T20:27:07.932Z,100100.06
2023-04-28T20:29:36.520Z,100105.75
2023-04-28T20:32:05.565Z,100100.47
2023-04-28T20:34:33.851Z,100102.72
2023-04-28T20:37:04.246Z,100099.34
2023-04-28T20:39:33.903Z,100101.72
2023-04-28T20:42:02.140Z,100104.91
2023-04-28T20:44:30.180Z,100100.06
2023-04-28T20:46:59.115Z,100096.56
2023-04-28T20:49:27.218Z,100104.97
2023-04-28T20:52:03.821Z,100094.19
2023-04-28T20:54:35.468Z,100096.53
2023-04-28T20:57:04.685Z,100101.88
2023-04-28T20:59:33.191Z,100100.00
2023-04-28T21:02:01.732Z,100104.69
2023-04-28T21:04:29.974Z,100106.38
2023-04-28T21:06:58.339Z,100107.91
2023-04-28T21:09:26.641Z,100105.28
2023-04-28T21:11:56.294Z,100109.63
2023-04-28T21:14:24.580Z,100110.78
2023-04-28T21:16:53.106Z,100111.41
2023-04-28T21:19:21.183Z,100117.06
2023-04-28T21:21:49.378Z,100125.34
2023-04-28T21:24:17.448Z,100113.88
2023-04-28T21:26:45.701Z,100122.41
2023-04-28T21:29:15.732Z,100126.34
2023-04-28T21:31:44.039Z,100122.97
2023-04-28T21:34:12.104Z,100127.50
2023-04-28T21:36:40.393Z,100129.31
2023-04-28T21:39:08.371Z,100128.84
2023-04-28T21:41:36.965Z,100123.41
2023-04-28T21:44:05.909Z,100122.69
2023-04-28T21:46:35.763Z,100127.06
2023-04-28T21:49:04.084Z,100133.22
2023-04-28T21:51:32.619Z,100133.38
2023-04-28T21:54:00.640Z,100137.19
2023-04-28T21:56:28.977Z,100139.31
2023-04-28T21:58:57.234Z,100138.44
2023-04-28T22:01:25.879Z,100137.16
2023-04-28T22:03:57.225Z,100142.72
2023-04-28T22:06:30.364Z,100150.72
2023-04-28T22:08:58.346Z,100151.25
2023-04-28T22:11:26.734Z,100155.84
2023-04-28T22:13:54.933Z,100158.59
2023-04-28T22:16:23.412Z,100153.81
2023-04-28T22:18:51.564Z,100154.03
2023-04-28T22:21:21.632Z,100153.63
2023-04-28T22:23:49.695Z,100162.25
2023-04-28T22:26:29.300Z,100168.38
2023-04-28T22:28:57.416Z,100168.94
2023-04-28T22:31:25.952Z,100176.47
2023-04-28T22:33:54.040Z,100176.00
2023-04-28T22:36:23.825Z,100174.94
2023-04-28T22:38:51.873Z,100179.63
2023-04-28T22:41:20.172Z,100188.81
2023-04-28T22:43:48.316Z,100177.34
2023-04-28T22:46:16.590Z,100179.03
2023-04-28T22:48:45.058Z,100178.22
2023-04-28T22:51:13.498Z,100179.91
2023-04-28T22:53:42.833Z,100184.78
2023-04-28T22:56:11.162Z,100185.91
2023-04-28T22:58:39.212Z,100184.06
2023-04-28T23:01:07.497Z,100177.13
2023-04-28T23:03:35.637Z,100174.75
2023-04-28T23:06:04.074Z,100180.63
2023-04-28T23:08:32.419Z,100175.88
2023-04-28T23:11:02.044Z,100182.78
2023-04-28T23:13:30.035Z,100183.81
2023-04-28T23:15:59.934Z,100169.41
2023-04-28T23:18:31.361Z,100182.69
2023-04-28T23:20:59.630Z,100180.03
2023-04-28T23:23:27.709Z,100182.69
2023-04-28T23:25:56.703Z,100182.22
2023-04-28T23:28:26.646Z,100185.28
2023-04-28T23:30:54.956Z,100185.84
2023-04-28T23:33:22.978Z,100185.91
2023-04-28T23:35:51.348Z,100187.50
2023-04-28T23:38:19.381Z,100191.31
2023-04-28T23:40:47.747Z,100194.00
2023-04-28T23:43:15.792Z,100198.28
2023-04-28T23:45:45.497Z,100199.56
2023-04-28T23:48:13.560Z,100192.97
2023-04-28T23:50:42.645Z,100194.66
2023-04-28T23:53:10.646Z,100191.69
2023-04-28T23:55:38.881Z,100183.69
2023-04-28T23:58:06.856Z,100184.19
